createdAt,value
2023-04-24T00:02:04.729Z,5.50
2023-04-24T00:04:34.095Z,5.10
2023-04-24T00:07:01.330Z,5.50
2023-04-24T00:09:28.521Z,5.40
2023-04-24T00:11:55.623Z,5.60
2023-04-24T00:14:22.865Z,5.40
2023-04-24T00:16:50.327Z,5.80
2023-04-24T00:19:17.685Z,5.10
2023-04-24T00:21:44.857Z,5.30
2023-04-24T00:24:12.052Z,5.10
2023-04-24T00:26:39.197Z,5.50
2023-04-24T00:29:06.606Z,5.30
2023-04-24T00:31:35.960Z,5.60
2023-04-24T00:34:03.750Z,5.00
2023-04-24T00:36:32.034Z,4.80
2023-04-24T00:38:59.267Z,5.20
2023-04-24T00:41:26.561Z,4.70
2023-04-24T00:43:54.009Z,4.70
2023-04-24T00:46:21.326Z,4.30
2023-04-24T00:48:49.163Z,4.20
2023-04-24T00:51:17.026Z,4.30
2023-04-24T00:53:44.196Z,4.60
2023-04-24T00:56:11.395Z,4.90
2023-04-24T00:58:38.398Z,5.20
2023-04-24T01:01:08.414Z,5.30
2023-04-24T01:03:38.296Z,5.60
2023-04-24T01:06:05.816Z,5.40
2023-04-24T01:08:32.842Z,5.60
2023-04-24T01:10:59.899Z,5.90
2023-04-24T01:13:26.871Z,6.00
2023-04-24T01:15:54.042Z,5.50
2023-04-24T01:18:22.385Z,5.70
2023-04-24T01:20:52.419Z,5.60
2023-04-24T01:23:19.498Z,5.50
2023-04-24T01:25:46.955Z,5.70
2023-04-24T01:28:15.222Z,4.70
2023-04-24T01:30:42.464Z,5.00
2023-04-24T01:33:09.716Z,4.90
2023-04-24T01:35:38.531Z,5.10
2023-04-24T01:38:06.792Z,4.20
2023-04-24T01:40:34.036Z,4.90
2023-04-24T01:43:01.324Z,5.40
2023-04-24T01:45:28.909Z,4.60
2023-04-24T01:47:57.396Z,4.60
2023-04-24T01:50:24.824Z,5.00
2023-04-24T01:52:52.361Z,4.30
2023-04-24T01:55:19.621Z,4.40
2023-04-24T01:57:46.947Z,4.40
2023-04-24T02:00:14.383Z,4.00
2023-04-24T02:02:43.106Z,4.50
2023-04-24T02:05:12.165Z,4.60
2023-04-24T02:07:39.381Z,4.60
2023-04-24T02:10:07.236Z,4.20
2023-04-24T02:12:34.264Z,4.30
2023-04-24T02:15:01.419Z,4.30
2023-04-24T02:17:28.644Z,4.40
2023-04-24T02:19:55.769Z,4.30
2023-04-24T02:22:22.797Z,3.50
2023-04-24T02:24:49.824Z,4.20
2023-04-24T02:27:16.816Z,4.00
2023-04-24T02:29:44.162Z,4.10
2023-04-24T02:32:13.331Z,4.60
2023-04-24T02:34:40.891Z,5.40
2023-04-24T02:37:08.142Z,4.80
2023-04-24T02:39:37.288Z,5.00
2023-04-24T02:42:04.491Z,4.80
2023-04-24T02:44:31.773Z,4.60
2023-04-24T02:46:58.797Z,5.10
2023-04-24T02:49:25.870Z,4.40
2023-04-24T02:51:52.972Z,4.60
2023-04-24T02:54:20.120Z,4.90
2023-04-24T02:56:47.147Z,5.10
2023-04-24T02:59:14.357Z,5.00
2023-04-24T03:01:41.646Z,4.60
2023-04-24T03:04:09.015Z,4.80
2023-04-24T03:06:36.732Z,4.60
2023-04-24T03:09:04.770Z,4.20
2023-04-24T03:11:32.746Z,5.00
2023-04-24T03:14:00.002Z,5.10
2023-04-24T03:16:27.104Z,5.20
2023-04-24T03:18:56.098Z,5.10
2023-04-24T03:21:24.966Z,5.40
2023-04-24T03:23:52.072Z,5.30
2023-04-24T03:26:19.353Z,5.70
2023-04-24T03:28:57.561Z,5.80
2023-04-24T03:31:24.854Z,5.70
2023-04-24T03:33:52.407Z,6.80
2023-04-24T03:36:20.534Z,6.30
2023-04-24T03:38:47.681Z,6.50
2023-04-24T03:41:23.179Z,6.60
2023-04-24T03:43:54.993Z,7.20
2023-04-24T03:46:22.120Z,7.60
2023-04-24T03:48:54.329Z,7.20
2023-04-24T03:51:24.092Z,7.70
2023-04-24T03:53:52.532Z,6.90
2023-04-24T03:56:21.809Z,7.30
2023-04-24T03:58:49.244Z,6.30
2023-04-24T04:01:17.308Z,6.60
2023-04-24T04:03:51.034Z,6.70
2023-04-24T04:06:20.712Z,5.90
2023-04-24T04:08:48.066Z,6.40
2023-04-24T04:11:15.343Z,6.30
2023-04-24T04:13:42.372Z,5.90
2023-04-24T04:16:09.922Z,6.20
2023-04-24T04:18:37.627Z,5.60
2023-04-24T04:21:05.540Z,5.70
2023-04-24T04:23:33.178Z,6.60
2023-04-24T04:26:12.548Z,6.70
2023-04-24T04:28:53.626Z,6.40
2023-04-24T04:31:22.258Z,6.50
2023-04-24T04:33:50.078Z,6.10
2023-04-24T04:36:19.816Z,6.80
2023-04-24T04:38:50.560Z,6.50
2023-04-24T04:41:36.358Z,6.50
2023-04-24T04:44:05.865Z,6.00
2023-04-24T04:46:37.454Z,6.10
2023-04-24T04:49:22.867Z,5.10
2023-04-24T04:51:51.997Z,5.10
2023-04-24T04:54:19.501Z,4.90
2023-04-24T04:56:46.661Z,4.60
2023-04-24T04:59:14.059Z,4.70
2023-04-24T05:06:37.976Z,3.50
2023-04-24T05:09:05.819Z,3.70
2023-04-24T05:11:56.544Z,4.20
2023-04-24T05:14:24.270Z,3.90
2023-04-24T05:16:52.100Z,3.80
2023-04-24T05:19:20.750Z,4.70
2023-04-24T05:21:47.920Z,4.30
2023-04-24T05:24:15.486Z,4.40
2023-04-24T05:27:01.422Z,4.50
2023-04-24T05:29:35.398Z,4.20
2023-04-24T05:32:04.460Z,4.60
2023-04-24T05:34:31.556Z,4.40
2023-04-24T05:36:58.692Z,5.00
2023-04-24T05:39:26.816Z,4.70
2023-04-24T05:41:54.594Z,4.70
2023-04-24T05:44:21.661Z,4.80
2023-04-24T05:46:49.171Z,4.20
2023-04-24T05:49:16.740Z,4.40
2023-04-24T05:51:44.242Z,4.20
2023-04-24T05:54:13.730Z,4.50
2023-04-24T05:56:43.009Z,4.30
2023-04-24T05:59:11.293Z,4.50
2023-04-24T06:01:39.369Z,4.20
2023-04-24T06:04:11.650Z,3.90
2023-04-24T06:06:38.852Z,4.00
2023-04-24T06:09:06.181Z,3.60
2023-04-24T06:11:33.463Z,3.60
2023-04-24T06:14:01.162Z,3.50
2023-04-24T06:16:43.268Z,2.80
2023-04-24T06:19:20.805Z,3.00
2023-04-24T06:21:48.125Z,3.30
2023-04-24T06:24:15.743Z,2.90
2023-04-24T06:26:43.001Z,3.30
2023-04-24T06:29:10.179Z,2.60
2023-04-24T06:31:38.392Z,2.70
2023-04-24T06:34:05.594Z,2.50
2023-04-24T06:36:33.733Z,3.00
2023-04-24T06:39:00.994Z,3.00
2023-04-24T06:41:29.033Z,2.50
2023-04-24T06:46:25.146Z,2.40
2023-04-24T06:48:52.210Z,2.20
2023-04-24T06:51:19.515Z,2.00
2023-04-24T06:53:48.679Z,1.80
2023-04-24T06:56:16.227Z,1.80
2023-04-24T06:58:43.401Z,1.90
2023-04-24T07:01:11.472Z,1.70
2023-04-24T07:03:38.816Z,2.00
2023-04-24T07:06:06.699Z,1.80
2023-04-24T07:08:34.403Z,1.80
2023-04-24T07:11:01.703Z,1.50
2023-04-24T07:13:28.748Z,1.50
2023-04-24T07:15:57.544Z,1.70
2023-04-24T07:18:25.136Z,1.70
2023-04-24T07:20:52.399Z,1.30
2023-04-24T07:23:19.814Z,1.50
2023-04-24T07:25:46.911Z,1.50
2023-04-24T07:28:14.549Z,1.60
2023-04-24T07:30:41.754Z,1.50
2023-04-24T07:33:08.880Z,1.40
2023-04-24T07:35:36.657Z,1.30
2023-04-24T07:38:03.653Z,1.30
2023-04-24T07:40:30.817Z,1.10
2023-04-24T07:42:58.103Z,1.60
2023-04-24T07:45:27.304Z,1.40
2023-04-24T07:47:54.426Z,1.60
2023-04-24T07:50:21.987Z,1.40
2023-04-24T07:52:49.390Z,1.30
2023-04-24T07:55:16.835Z,1.10
2023-04-24T07:57:43.885Z,1.40
2023-04-24T08:00:11.762Z,1.30
2023-04-24T08:05:07.167Z,1.10
2023-04-24T08:07:34.441Z,1.20
2023-04-24T08:10:01.560Z,1.30
2023-04-24T08:12:30.280Z,1.50
2023-04-24T08:14:57.447Z,1.20
2023-04-24T08:17:25.049Z,1.40
2023-04-24T08:19:54.423Z,1.30
2023-04-24T08:22:21.761Z,1.10
2023-04-24T08:24:48.831Z,1.40
2023-04-24T08:27:16.017Z,1.20
2023-04-24T08:29:43.461Z,1.40
2023-04-24T08:32:10.875Z,1.10
2023-04-24T08:34:38.130Z,1.30
2023-04-24T08:37:05.243Z,1.00
2023-04-24T08:39:32.403Z,1.20
2023-04-24T08:42:06.378Z,1.30
2023-04-24T08:44:34.765Z,1.10
2023-04-24T08:47:04.659Z,1.30
2023-04-24T08:49:31.759Z,1.30
2023-04-24T08:51:58.879Z,1.20
2023-04-24T08:54:26.433Z,1.30
2023-04-24T08:56:53.691Z,1.20
2023-04-24T08:59:20.982Z,1.10
2023-04-24T09:01:48.366Z,1.20
2023-04-24T09:04:17.662Z,1.20
2023-04-24T09:06:45.088Z,1.30
2023-04-24T09:09:12.946Z,1.10
2023-04-24T09:14:06.953Z,1.00
2023-04-24T09:16:36.561Z,1.10
2023-04-24T09:19:04.627Z,0.90
2023-04-24T09:21:35.571Z,1.30
2023-04-24T09:24:07.364Z,1.10
2023-04-24T09:26:36.989Z,1.30
2023-04-24T09:29:04.615Z,0.80
2023-04-24T09:31:31.842Z,1.60
2023-04-24T09:34:06.448Z,1.30
2023-04-24T09:36:39.324Z,1.10
2023-04-24T09:39:09.443Z,1.10
2023-04-24T09:41:36.874Z,0.80
2023-04-24T09:44:17.853Z,1.10
2023-04-24T09:46:46.682Z,1.10
2023-04-24T09:49:16.086Z,1.20
2023-04-24T09:51:43.465Z,1.20
2023-04-24T09:54:18.516Z,1.30
2023-04-24T09:56:46.698Z,0.90
2023-04-24T09:59:17.955Z,0.90
2023-04-24T10:01:49.816Z,1.00
2023-04-24T10:04:18.714Z,1.20
2023-04-24T10:06:45.943Z,1.00
2023-04-24T10:09:14.950Z,1.00
2023-04-24T10:11:43.187Z,0.80
2023-04-24T10:15:30.191Z,1.00
2023-04-24T10:17:58.687Z,1.00
2023-04-24T10:20:27.716Z,1.30
2023-04-24T10:22:54.874Z,1.10
2023-04-24T10:25:22.997Z,0.90
2023-04-24T10:27:50.714Z,1.30
2023-04-24T10:30:18.658Z,1.20
2023-04-24T10:35:13.458Z,1.10
2023-04-24T10:37:42.854Z,1.10
2023-04-24T10:40:10.363Z,1.10
2023-04-24T10:42:41.994Z,0.80
2023-04-24T10:45:17.647Z,1.00
2023-04-24T10:47:56.931Z,1.10
2023-04-24T10:50:25.213Z,1.00
2023-04-24T10:52:53.208Z,1.20
2023-04-24T10:55:46.314Z,1.00
2023-04-24T10:58:13.803Z,1.10
2023-04-24T11:00:41.612Z,0.90
2023-04-24T11:06:02.983Z,1.10
2023-04-24T11:08:39.475Z,1.30
2023-04-24T11:11:13.340Z,1.20
2023-04-24T11:13:56.017Z,1.50
2023-04-24T11:16:26.866Z,1.50
2023-04-24T11:19:03.024Z,1.40
2023-04-24T11:21:55.912Z,1.50
2023-04-24T11:24:35.761Z,1.70
2023-04-24T11:27:12.448Z,1.50
2023-04-24T11:30:00.591Z,1.80
2023-04-24T11:32:34.356Z,1.50
2023-04-24T11:35:11.726Z,1.50
2023-04-24T11:37:39.810Z,1.50
2023-04-24T11:40:08.793Z,1.60
2023-04-24T11:42:37.282Z,1.40
2023-04-24T11:47:35.925Z,1.60
2023-04-24T11:50:03.859Z,1.60
2023-04-24T11:52:31.579Z,1.60
2023-04-24T11:55:01.717Z,1.60
2023-04-24T11:57:34.076Z,1.90
2023-04-24T12:00:03.213Z,1.70
2023-04-24T12:02:40.293Z,1.60
2023-04-24T12:05:08.211Z,1.90
2023-04-24T12:07:43.353Z,1.90
2023-04-24T12:10:10.534Z,1.30
2023-04-24T12:12:37.858Z,1.50
2023-04-24T12:15:08.698Z,1.70
2023-04-24T12:17:37.210Z,1.30
2023-04-24T12:20:05.736Z,1.30
2023-04-24T12:22:49.757Z,1.50
2023-04-24T12:25:18.142Z,1.30
2023-04-24T12:27:55.912Z,1.30
2023-04-24T12:30:28.265Z,2.80
2023-04-24T12:32:55.525Z,1.90
2023-04-24T12:35:24.170Z,1.50
2023-04-24T12:37:51.896Z,1.50
2023-04-24T12:40:21.611Z,1.60
2023-04-24T12:42:49.979Z,1.30
2023-04-24T12:45:18.020Z,1.30
2023-04-24T12:47:45.719Z,1.60
2023-04-24T12:52:40.601Z,1.30
2023-04-24T12:55:08.582Z,1.60
2023-04-24T12:57:36.633Z,1.70
2023-04-24T13:00:06.608Z,1.50
2023-04-24T13:02:35.079Z,1.60
2023-04-24T13:05:02.371Z,1.60
2023-04-24T13:07:29.832Z,1.20
2023-04-24T13:09:58.084Z,1.50
2023-04-24T13:14:53.494Z,1.50
2023-04-24T13:17:20.784Z,1.30
2023-04-24T13:19:50.621Z,1.30
2023-04-24T13:22:19.328Z,1.20
2023-04-24T13:24:46.341Z,1.30
2023-04-24T13:27:13.354Z,1.80
2023-04-24T13:29:40.162Z,1.30
2023-04-24T13:32:07.302Z,1.50
2023-04-24T13:34:35.751Z,1.10
2023-04-24T13:37:04.221Z,1.20
2023-04-24T13:39:32.024Z,1.20
2023-04-24T13:41:59.156Z,1.10
2023-04-24T13:44:26.126Z,1.30
2023-04-24T13:46:57.259Z,1.20
2023-04-24T13:49:27.567Z,1.30
2023-04-24T13:51:55.401Z,1.50
2023-04-24T13:54:26.030Z,1.30
2023-04-24T13:56:52.996Z,1.50
2023-04-24T13:59:22.870Z,1.40
2023-04-24T14:01:50.058Z,1.40
2023-04-24T14:04:17.903Z,1.50
2023-04-24T14:06:45.298Z,1.70
2023-04-24T14:09:13.160Z,1.80
2023-04-24T14:11:41.372Z,1.80
2023-04-24T14:14:08.719Z,1.70
2023-04-24T14:16:35.887Z,2.80
2023-04-24T14:19:03.010Z,1.90
2023-04-24T14:21:32.154Z,1.50
2023-04-24T14:24:00.138Z,7.70
2023-04-24T14:26:27.178Z,25.40
2023-04-24T14:29:01.080Z,19.00
2023-04-24T14:31:38.316Z,13.70
2023-04-24T14:34:05.447Z,22.10
2023-04-24T14:36:32.499Z,10.60
2023-04-24T14:38:59.656Z,8.10
2023-04-24T14:41:26.473Z,4.70
2023-04-24T14:43:53.291Z,5.10
2023-04-24T14:46:20.681Z,13.10
2023-04-24T14:48:47.838Z,23.70
2023-04-24T14:51:15.031Z,17.90
2023-04-24T14:53:42.007Z,10.10
2023-04-24T14:56:08.871Z,8.10
2023-04-24T14:58:35.704Z,7.30
2023-04-24T15:01:02.551Z,5.00
2023-04-24T15:03:30.145Z,4.10
2023-04-24T15:05:57.283Z,4.40
2023-04-24T15:08:24.763Z,4.20
2023-04-24T15:10:51.889Z,3.60
2023-04-24T15:13:19.474Z,2.40
2023-04-24T15:15:48.009Z,4.70
2023-04-24T15:18:15.239Z,3.90
2023-04-24T15:20:42.403Z,2.50
2023-04-24T15:23:10.123Z,2.10
2023-04-24T15:25:37.550Z,1.50
2023-04-24T15:28:05.795Z,1.60
2023-04-24T15:30:33.440Z,1.40
2023-04-24T15:33:01.195Z,1.30
2023-04-24T15:35:28.480Z,1.30
2023-04-24T15:37:55.687Z,1.40
2023-04-24T15:40:22.915Z,1.40
2023-04-24T15:42:50.525Z,1.40
2023-04-24T15:45:17.624Z,1.40
2023-04-24T15:47:46.525Z,1.80
2023-04-24T15:50:14.900Z,1.90
2023-04-24T15:52:43.513Z,1.80
2023-04-24T15:55:10.588Z,1.60
2023-04-24T15:57:37.543Z,1.90
2023-04-24T16:00:10.073Z,1.50
2023-04-24T16:02:40.846Z,1.70
2023-04-24T16:05:08.261Z,1.70
2023-04-24T16:07:37.272Z,1.90
2023-04-24T16:10:04.395Z,1.70
2023-04-24T16:12:31.478Z,1.70
2023-04-24T16:14:58.787Z,1.30
2023-04-24T16:17:25.770Z,1.50
2023-04-24T16:19:52.580Z,1.70
2023-04-24T16:22:19.503Z,2.10
2023-04-24T16:24:47.548Z,2.00
2023-04-24T16:27:15.177Z,2.50
2023-04-24T16:29:42.617Z,2.30
2023-04-24T16:32:10.276Z,2.00
2023-04-24T16:34:37.437Z,1.80
2023-04-24T16:37:05.111Z,1.90
2023-04-24T16:39:31.996Z,2.00
2023-04-24T16:42:00.162Z,1.50
2023-04-24T16:44:27.842Z,1.70
2023-04-24T16:46:55.166Z,1.40
2023-04-24T16:49:23.277Z,1.20
2023-04-24T16:51:50.405Z,1.40
2023-04-24T16:54:17.581Z,1.30
2023-04-24T16:56:44.498Z,1.50
2023-04-24T16:59:11.464Z,1.30
2023-04-24T17:01:38.324Z,1.30
2023-04-24T17:04:06.126Z,1.30
2023-04-24T17:06:33.915Z,1.30
2023-04-24T17:09:00.721Z,1.10
2023-04-24T17:11:28.801Z,1.40
2023-04-24T17:13:59.144Z,1.30
2023-04-24T17:16:26.163Z,1.30
2023-04-24T17:18:53.554Z,1.10
2023-04-24T17:21:20.497Z,1.20
2023-04-24T17:23:47.370Z,1.60
2023-04-24T17:26:14.223Z,1.50
2023-04-24T17:28:41.513Z,1.40
2023-04-24T17:31:08.677Z,1.50
2023-04-24T17:33:36.666Z,1.20
2023-04-24T17:36:03.708Z,1.40
2023-04-24T17:38:30.779Z,1.50
2023-04-24T17:40:57.816Z,1.80
2023-04-24T17:43:25.611Z,1.60
2023-04-24T17:45:55.319Z,2.20
2023-04-24T17:48:22.352Z,1.90
2023-04-24T17:50:49.392Z,1.80
2023-04-24T17:53:18.235Z,2.00
2023-04-24T17:55:48.157Z,1.60
2023-04-24T17:58:15.150Z,1.80
2023-04-24T18:00:42.485Z,1.50
2023-04-24T18:03:10.174Z,2.00
2023-04-24T18:08:05.476Z,1.60
2023-04-24T18:10:33.033Z,2.00
2023-04-24T18:12:59.923Z,1.70
2023-04-24T18:15:26.750Z,1.90
2023-04-24T18:17:53.617Z,1.70
2023-04-24T18:20:21.162Z,2.30
2023-04-24T18:22:48.361Z,2.10
2023-04-24T18:25:15.209Z,1.90
2023-04-24T18:27:42.141Z,2.30
2023-04-24T18:30:13.551Z,2.40
2023-04-24T18:32:41.979Z,2.30
2023-04-24T18:35:09.456Z,2.30
2023-04-24T18:37:36.614Z,2.50
2023-04-24T18:40:03.636Z,2.40
2023-04-24T18:42:30.917Z,2.40
2023-04-24T18:45:01.980Z,2.70
2023-04-24T18:47:29.202Z,2.40
2023-04-24T18:49:56.314Z,2.40
2023-04-24T18:52:23.358Z,2.60
2023-04-24T18:54:50.240Z,2.60
2023-04-24T18:57:17.370Z,2.20
2023-04-24T18:59:44.197Z,2.30
2023-04-24T19:02:11.418Z,2.50
2023-04-24T19:04:38.519Z,1.90
2023-04-24T19:07:05.430Z,2.00
2023-04-24T19:09:33.144Z,2.20
2023-04-24T19:12:01.515Z,2.00
2023-04-24T19:14:28.547Z,2.40
2023-04-24T19:16:55.562Z,2.60
2023-04-24T19:19:23.383Z,2.40
2023-04-24T19:21:50.593Z,2.50
2023-04-24T19:24:20.809Z,1.90
2023-04-24T19:26:48.141Z,2.00
2023-04-24T19:29:15.140Z,2.20
2023-04-24T19:31:41.977Z,2.10
2023-04-24T19:34:09.174Z,2.10
2023-04-24T19:36:36.655Z,1.70
2023-04-24T19:39:03.556Z,2.00
2023-04-24T19:41:30.726Z,1.90
2023-04-24T19:43:57.505Z,1.90
2023-04-24T19:46:24.810Z,1.90
2023-04-24T19:48:51.933Z,2.30
2023-04-24T19:51:19.127Z,2.30
2023-04-24T19:53:45.943Z,2.30
2023-04-24T19:56:12.860Z,2.10
2023-04-24T19:58:40.333Z,2.60
2023-04-24T20:01:07.278Z,4.00
2023-04-24T20:03:35.040Z,5.30
2023-04-24T20:06:02.173Z,5.60
2023-04-24T20:08:29.247Z,5.40
2023-04-24T20:10:57.268Z,3.90
2023-04-24T20:13:27.485Z,3.50
2023-04-24T20:15:54.418Z,4.00
2023-04-24T20:18:21.373Z,4.60
2023-04-24T20:20:48.645Z,3.70
2023-04-24T20:23:15.908Z,2.30
2023-04-24T20:25:42.778Z,2.70
2023-04-24T20:28:09.821Z,2.70
2023-04-24T20:30:37.561Z,2.10
2023-04-24T20:33:04.451Z,2.40
2023-04-24T20:35:31.514Z,2.00
2023-04-24T20:37:59.000Z,1.90
2023-04-24T20:40:27.500Z,2.20
2023-04-24T20:42:55.204Z,2.20
2023-04-24T20:45:23.614Z,1.90
2023-04-24T20:47:50.918Z,2.20
2023-04-24T20:50:18.313Z,2.10
2023-04-24T20:52:45.267Z,2.20
2023-04-24T20:55:12.177Z,2.60
2023-04-24T20:57:39.054Z,2.60
2023-04-24T21:00:08.237Z,2.80
2023-04-24T21:02:35.642Z,2.80
2023-04-24T21:05:03.876Z,2.60
2023-04-24T21:07:30.832Z,2.90
2023-04-24T21:09:57.629Z,2.80
2023-04-24T21:12:25.039Z,3.80
2023-04-24T21:14:51.883Z,3.60
2023-04-24T21:17:18.727Z,3.50
2023-04-24T21:19:45.438Z,3.90
2023-04-24T21:22:12.190Z,3.90
2023-04-24T21:24:39.570Z,3.90
2023-04-24T21:27:06.951Z,5.00
2023-04-24T21:29:35.238Z,5.00
2023-04-24T21:32:02.675Z,4.80
2023-04-24T21:34:29.913Z,5.00
2023-04-24T21:36:56.959Z,5.20
2023-04-24T21:39:23.796Z,5.70
2023-04-24T21:41:50.880Z,5.20
2023-04-24T21:44:17.672Z,5.20
2023-04-24T21:46:44.802Z,4.80
2023-04-24T21:49:11.803Z,5.30
2023-04-24T21:51:38.650Z,6.30
2023-04-24T21:54:05.575Z,5.60
2023-04-24T21:56:32.424Z,5.90
2023-04-24T21:58:59.218Z,6.10
2023-04-24T22:01:26.338Z,6.00
2023-04-24T22:03:53.588Z,5.60
2023-04-24T22:06:21.080Z,5.50
2023-04-24T22:08:47.991Z,5.50
2023-04-24T22:11:25.832Z,4.60
2023-04-24T22:13:54.759Z,4.70
2023-04-24T22:16:23.126Z,4.90
2023-04-24T22:18:53.100Z,5.00
2023-04-24T22:21:22.956Z,4.80
2023-04-24T22:23:50.264Z,5.00
2023-04-24T22:26:17.550Z,4.90
2023-04-24T22:31:39.744Z,4.90
2023-04-24T22:34:06.601Z,5.40
2023-04-24T22:36:33.882Z,5.20
2023-04-24T22:39:00.928Z,5.30
2023-04-24T22:41:27.811Z,4.40
2023-04-24T22:43:55.412Z,4.20
2023-04-24T22:46:24.408Z,4.20
2023-04-24T22:48:51.820Z,4.50
2023-04-24T22:51:18.588Z,3.90
2023-04-24T22:53:45.568Z,3.90
2023-04-24T22:56:12.399Z,4.10
2023-04-24T22:58:39.200Z,3.80
2023-04-24T23:01:06.447Z,4.00
2023-04-24T23:03:35.058Z,3.90
2023-04-24T23:06:02.116Z,3.50
2023-04-24T23:08:30.444Z,3.90
2023-04-24T23:13:25.390Z,3.50
2023-04-24T23:15:54.556Z,3.50
2023-04-24T23:18:21.921Z,3.40
2023-04-24T23:20:48.897Z,3.60
2023-04-24T23:23:16.131Z,3.70
2023-04-24T23:25:43.507Z,4.00
2023-04-24T23:28:10.584Z,4.20
2023-04-24T23:30:37.508Z,4.20
2023-04-24T23:33:04.628Z,3.90
2023-04-24T23:35:31.599Z,3.80
2023-04-24T23:37:58.726Z,3.70
2023-04-24T23:40:25.832Z,4.00
2023-04-24T23:43:05.783Z,3.70
2023-04-24T23:45:34.992Z,3.50
2023-04-24T23:48:03.516Z,3.80
2023-04-24T23:50:30.824Z,3.20
2023-04-24T23:52:57.680Z,3.10
2023-04-24T23:55:24.510Z,3.40
2023-04-24T23:57:51.599Z,3.10
